createdAt,value
2019-03-30T13:55:42.535Z,16.13
2019-03-30T13:58:12.743Z,17.13
2019-03-30T14:00:42.767Z,19.00
2019-03-30T14:15:21.688Z,20.03
2019-03-30T14:17:52.701Z,20.80
2019-03-30T14:20:51.015Z,17.77
2019-03-30T14:23:32.441Z,20.23
2019-03-30T14:26:03.133Z,19.03
2019-03-30T14:28:35.358Z,21.57
2019-03-30T14:31:05.572Z,20.70
2019-03-30T14:33:35.893Z,19.73
2019-03-30T14:36:07.143Z,22.03
2019-03-30T14:38:37.163Z,19.87
2019-03-30T14:41:07.678Z,19.87
2019-03-30T14:43:37.708Z,20.13
2019-03-30T14:46:08.388Z,22.83
2019-03-30T14:48:38.471Z,24.40
2019-03-30T14:51:09.621Z,25.73
2019-03-30T14:53:40.106Z,25.97
2019-03-30T14:56:10.348Z,24.93
2019-03-30T14:58:40.939Z,25.47
2019-03-30T15:01:11.871Z,25.17
2019-03-30T15:03:41.996Z,23.57
2019-03-30T15:06:12.437Z,23.57
2019-03-30T15:08:42.506Z,23.60
2019-03-30T15:11:12.726Z,24.47
2019-03-30T15:13:42.828Z,27.07
2019-03-30T15:16:15.065Z,25.47
2019-03-30T15:18:46.917Z,27.97
2019-03-30T15:21:16.994Z,25.37
2019-03-30T15:23:48.897Z,26.60
2019-03-30T15:26:22.144Z,27.03
2019-03-30T15:28:53.079Z,28.70
2019-03-30T15:31:23.291Z,25.07
2019-03-30T15:33:53.587Z,26.07
2019-03-30T15:36:24.284Z,25.83
2019-03-30T15:38:54.687Z,25.60
2019-03-30T15:41:24.792Z,24.37
2019-03-30T15:43:55.157Z,21.77
2019-03-30T15:46:27.112Z,23.77
2019-03-30T15:49:12.123Z,22.40
2019-03-30T15:51:45.306Z,22.13
2019-03-30T15:54:15.319Z,25.03
2019-03-30T15:56:45.663Z,22.00
2019-03-30T15:59:17.987Z,20.00
2019-03-30T16:01:47.902Z,20.27
2019-03-30T16:04:17.882Z,21.83
2019-03-30T16:06:50.386Z,20.23
2019-03-30T16:09:20.733Z,21.60
2019-03-30T16:11:52.241Z,23.00
2019-03-30T16:14:22.082Z,22.17
2019-03-30T16:16:52.092Z,23.07
2019-03-30T16:19:23.951Z,23.67
2019-03-30T16:21:54.532Z,26.00
2019-03-30T16:24:24.954Z,28.80
2019-03-30T16:27:09.167Z,28.47
2019-03-30T16:29:39.134Z,28.97
2019-03-30T16:32:10.376Z,29.47
2019-03-30T16:34:40.986Z,27.93
2019-03-30T16:37:12.232Z,28.53
2019-03-30T16:39:43.727Z,29.40
2019-03-30T16:42:14.459Z,26.00
2019-03-30T16:44:46.425Z,25.90
2019-03-30T16:47:16.526Z,24.37
2019-03-30T16:49:46.561Z,23.00
2019-03-30T16:52:18.479Z,23.47
2019-03-30T16:54:49.451Z,23.90
2019-03-30T16:57:20.174Z,23.50
2019-03-30T16:59:52.084Z,24.33
2019-03-30T17:02:23.038Z,25.93
2019-03-30T17:04:54.056Z,26.53
2019-03-30T17:07:24.611Z,24.97
2019-03-30T17:09:56.537Z,25.60
2019-03-30T17:12:33.186Z,26.37
2019-03-30T17:15:04.257Z,24.40
2019-03-30T17:17:34.345Z,25.03
2019-03-30T17:20:07.792Z,25.93
2019-03-30T17:22:39.895Z,25.70
2019-03-30T17:25:09.971Z,28.63
2019-03-30T17:27:56.895Z,27.90
2019-03-30T17:30:14.156Z,27.77
2019-03-30T17:32:44.114Z,27.73
2019-03-30T17:35:14.680Z,28.83
2019-03-30T17:37:45.278Z,27.90
2019-03-30T17:40:15.443Z,26.53
2019-03-30T17:42:53.182Z,27.63
2019-03-30T17:45:23.044Z,27.63
2019-03-30T17:47:52.883Z,27.93
2019-03-30T17:50:25.484Z,27.60
2019-03-30T17:52:57.140Z,28.10
2019-03-30T17:55:33.629Z,28.87
2019-03-30T17:58:12.198Z,28.20
2019-03-30T18:00:31.836Z,27.97
2019-03-30T18:03:01.713Z,27.87
2019-03-30T18:05:33.554Z,27.10
2019-03-30T18:08:07.185Z,28.07
2019-03-30T18:10:38.532Z,26.90
2019-03-30T18:13:08.418Z,29.40
2019-03-30T18:15:38.295Z,28.40
2019-03-30T18:18:08.454Z,28.67
2019-03-30T18:20:38.723Z,25.27
2019-03-30T18:23:08.524Z,25.97
2019-03-30T18:25:44.094Z,27.80
2019-03-30T18:28:26.513Z,30.07
2019-03-30T18:30:45.452Z,24.33
2019-03-30T18:33:15.357Z,28.23
2019-03-30T18:35:45.356Z,26.70
2019-03-30T18:38:16.665Z,27.83
2019-03-30T18:40:46.412Z,25.73
2019-03-30T18:43:16.338Z,27.30
2019-03-30T18:45:46.072Z,25.20
2019-03-30T18:48:17.973Z,26.93
2019-03-30T18:50:48.602Z,21.77
2019-03-30T18:53:19.345Z,27.70
2019-03-30T18:55:49.037Z,27.33
2019-03-30T18:58:23.216Z,31.10
2019-03-30T19:00:53.225Z,29.17
2019-03-30T19:03:23.352Z,29.50
2019-03-30T19:05:53.058Z,26.93
2019-03-30T19:08:23.889Z,28.93
2019-03-30T19:10:54.795Z,26.77
2019-03-30T19:13:25.172Z,28.47
2019-03-30T19:15:55.624Z,28.97
2019-03-30T19:18:25.614Z,29.00
2019-03-30T19:20:55.559Z,27.47
2019-03-30T19:23:32.498Z,27.17
2019-03-30T19:26:04.902Z,26.73
2019-03-30T19:28:34.789Z,28.23
2019-03-30T19:31:07.334Z,25.03
2019-03-30T19:33:37.313Z,26.00
2019-03-30T19:36:10.310Z,26.57
2019-03-30T19:38:40.717Z,27.00
2019-03-30T19:41:10.480Z,25.53
2019-03-30T19:43:41.700Z,28.83
2019-03-30T19:46:12.226Z,23.83
2019-03-30T19:48:44.229Z,33.30
2019-03-30T19:51:21.192Z,30.70
2019-03-30T19:53:52.388Z,30.70
2019-03-30T19:56:27.295Z,31.50
2019-03-30T19:59:10.980Z,31.13
2019-03-30T20:01:37.711Z,31.67
2019-03-30T20:04:08.038Z,33.17
2019-03-30T20:06:45.206Z,34.20
2019-03-30T20:09:15.862Z,34.17
2019-03-30T20:11:46.797Z,32.00
2019-03-30T20:14:29.690Z,34.03
2019-03-30T20:17:00.077Z,30.37
2019-03-30T20:19:30.102Z,34.33
2019-03-30T20:21:59.959Z,33.60
2019-03-30T20:24:32.597Z,32.43
2019-03-30T20:27:41.711Z,36.43
2019-03-30T20:30:10.909Z,33.03
2019-03-30T20:32:43.264Z,33.37
2019-03-30T20:35:12.333Z,31.03
2019-03-30T20:37:42.159Z,33.00
2019-03-30T20:40:11.232Z,33.83
2019-03-30T20:42:40.317Z,34.80
2019-03-30T20:45:09.286Z,33.20
2019-03-30T20:47:38.681Z,33.00
2019-03-30T20:50:08.969Z,32.70
2019-03-30T20:52:39.011Z,34.13
2019-03-30T20:55:08.532Z,33.13
2019-03-30T20:57:38.610Z,34.73
2019-03-30T21:00:08.761Z,33.13
2019-03-30T21:02:38.635Z,34.23
2019-03-30T21:05:08.158Z,36.35
2019-03-30T21:07:37.522Z,34.35
2019-03-30T21:10:07.553Z,36.10
2019-03-30T21:12:36.836Z,34.53
2019-03-30T21:15:06.058Z,33.83
2019-03-30T21:17:35.055Z,32.70
2019-03-30T21:20:08.231Z,31.93
2019-03-30T21:22:37.704Z,33.67
2019-03-30T21:25:06.791Z,33.43
2019-03-30T21:27:35.629Z,30.40
2019-03-30T21:30:06.416Z,29.20
2019-03-30T21:32:41.431Z,36.03
2019-03-30T21:35:10.555Z,33.23
2019-03-30T21:37:41.898Z,30.13
2019-03-30T21:40:10.834Z,30.17
2019-03-30T21:42:39.920Z,33.13
2019-03-30T21:45:08.874Z,32.33
2019-03-30T21:47:38.202Z,30.80
2019-03-30T21:50:07.355Z,31.60
2019-03-30T21:52:36.712Z,34.90
2019-03-30T21:55:06.870Z,31.93
2019-03-30T21:57:38.513Z,33.77
2019-03-30T22:00:10.338Z,28.13
2019-03-30T22:02:38.900Z,32.08
2019-03-30T22:05:07.850Z,34.60
2019-03-30T22:07:38.207Z,31.03
2019-03-30T22:10:08.407Z,31.77
2019-03-30T22:12:41.893Z,33.60
2019-03-30T22:15:13.514Z,34.70
2019-03-30T22:17:43.440Z,31.83
2019-03-30T22:20:12.973Z,33.33
2019-03-30T22:22:43.182Z,30.73
2019-03-30T22:25:12.191Z,36.30
2019-03-30T22:27:41.016Z,33.47
2019-03-30T22:30:24.185Z,34.27
2019-03-30T22:32:41.083Z,39.77
2019-03-30T22:35:10.172Z,37.60
2019-03-30T22:37:39.737Z,47.27
2019-03-30T22:40:09.631Z,37.23
2019-03-30T22:42:40.657Z,39.58
2019-03-30T22:45:10.689Z,44.83
2019-03-30T22:47:41.826Z,38.70
2019-03-30T22:50:10.970Z,51.47
2019-03-30T22:52:40.070Z,44.73
2019-03-30T22:55:09.035Z,45.70
2019-03-30T22:57:40.111Z,51.13
2019-03-30T23:00:09.198Z,47.48
2019-03-30T23:02:38.751Z,44.23
2019-03-30T23:05:07.535Z,41.60
2019-03-30T23:07:36.388Z,44.67
2019-03-30T23:10:05.860Z,43.55
2019-03-30T23:12:34.940Z,40.57
2019-03-30T23:15:03.908Z,43.30
2019-03-30T23:17:32.986Z,38.37
2019-03-30T23:20:01.810Z,43.97
2019-03-30T23:22:30.538Z,45.87
2019-03-30T23:24:59.815Z,49.73
2019-03-30T23:27:30.900Z,48.40
2019-03-30T23:30:01.029Z,48.40
2019-03-30T23:32:29.893Z,49.37
2019-03-30T23:34:59.966Z,51.63
2019-03-30T23:37:28.728Z,50.43
2019-03-30T23:39:57.664Z,50.30
2019-03-30T23:42:29.422Z,49.03
2019-03-30T23:44:59.338Z,49.30
2019-03-30T23:47:28.296Z,45.83
2019-03-30T23:49:59.676Z,42.20
2019-03-30T23:52:30.625Z,50.77
2019-03-30T23:54:59.561Z,47.10
2019-03-30T23:57:28.735Z,45.43
2019-03-30T23:59:58.592Z,46.50
